LEZL/SVQ METAR and TAF weather

Enter ICAO airport designator
Station Type Date Time Source
LEZL METAR 2020/09/26 20:30 UTC NOAA

LEZL 262030Z 20004KT 150V230 CAVOK 22/12 Q1017 NOSIG


Station Type Date Time Source
LEZL Decoded METAR 2020/09/26 20:30 UTC NOAA

Sevilla / San Pablo, Spain (LEZL) 37-25N 005-54W 31M
Sep 26, 2020 - 04:30 PM EDT / 2020.09.26 2030 UTC
Wind: from the SSW (200 degrees) at 5 MPH (4 KT) (direction variable):0
Visibility: greater than 7 mile(s):0
Temperature: 71 F (22 C)
Dew Point: 53 F (12 C)
Relative Humidity: 53%
Pressure (altimeter): 30.03 in. Hg (1017 hPa)
ob: LEZL 262030Z 20004KT 150V230 CAVOK 22/12 Q1017 NOSIG
cycle: 20

Station Type Date Time Source
LEZL TAF 2020/09/26 21:27 UTC NOAA

TAF LEZL 262000Z 2621/2721 34004KT CAVOK TX29/2715Z TN15/2706Z

Example: see airport list